Tiempo atmosférico en la estación meteorológica de Castellón de la Plana, Almazora, Castelló/Castellón (35 m.)

Fecha
DESCASC
Temp. máxima en grados centígrados (hora)
DESCASC
Temp. mínima en grados centígrados (hora)
DESCASC
Temp. media en grados centígrados
DESCASC
Racha de viento máxima en m/sg (hora)
DESCASC
Velocidad máxima media en intervalos de 10 minutos(hora)
DESCASC
Precipitaciones diarias en mm
DESCASC
Precipitaciones de 00:00 a 06:00 en mm
DESCASC
Precipitaciones de 06:00 a 12:00 en mm
DESCASC
Precipitaciones de 12:00 a 18:00 en mm
DESCASC
Precipitaciones de 18:00 a 24:00 en mm
DESCASC

Gráficas

Temp. máximas Temp. mínimas Temp. medias Precipitaciones Rachas de viento máximas Velocidades máximas media en intervalos de 10 minutos

Datos horarios

Fecha y hora oficial Temperatura (ºC) Velocidad del viento (km/h) Dirección del viento Racha (km/h) Dirección de racha Precipitación (mm) Presión (hPa) Tendencia (hPa) Humedad (%)
2017-09-20 23:00:00 20.8 4 Noroeste 6 Oeste 0 1012.9 0.5 83
2017-09-20 22:00:00 22.1 3 Norte 7 Noroeste 0 1012.7 0.3 81
2017-09-20 21:00:00 22.4 4 Nordeste 8 Este 0 1012.5 0.2 81
2017-09-20 20:00:00 23.1 6 Este 14 Sur 0 1012.4 -0.2 77
2017-09-20 19:00:00 24.1 7 Sudeste 15 Sur 0 1012.4 -0.4 71
2017-09-20 18:00:00 24.8 10 Sudeste 21 Sur 0 1012.3 -1 66
2017-09-20 17:00:00 25.9 9 Sudeste 24 Este 0 1012.6 -1.3 64
2017-09-20 16:00:00 25.9 12 Este 24 Sudeste 0 1012.8 -1.6 62
2017-09-20 15:00:00 25.4 12 Este 24 Sudeste 0 1013.3 -1.4 61
2017-09-20 14:00:00 25.3 11 Sudeste 21 Sudeste 0 1013.9 -1.2 64
2017-09-20 13:00:00 26.3 10 Sudeste 24 Este 0 1014.4 -0.6 59
2017-09-20 12:00:00 25.6 5 Sur 12 Sur 0 1014.7 -0.3 57
2017-09-20 11:00:00 21.9 4 Norte 17 Oeste 0 1015.1 0.2 49
2017-09-20 10:00:00 19.1 11 Oeste 21 Noroeste 0 1015 0.3 61
2017-09-20 09:00:00 17.1 14 Oeste 21 Noroeste 0 1015 0.3 68
2017-09-20 08:00:00 16.5 12 Noroeste 21 Oeste 0 1014.9 0 75
2017-09-20 07:00:00 16.7 10 Oeste 22 Noroeste 0 1014.7 -0.6 76
2017-09-20 06:00:00 16.6 13 Oeste 23 Oeste 0 1014.7 -0.9 79
2017-09-20 05:00:00 16.7 14 Oeste 20 Oeste 0 1014.9 -0.8 83
2017-09-20 04:00:00 17.2 13 Oeste 21 Noroeste 0 1015.3 -0.6 83
2017-09-20 03:00:00 17.5 11 Oeste 19 Oeste 0 1015.6 -0.2 82
2017-09-20 02:00:00 17.9 8 Oeste 13 Oeste 0 1015.7 0.4 83
2017-09-20 01:00:00 18.2 8 Oeste 13 Oeste 0 1015.9 0.8 81
2017-09-20 00:00:00 18.9 2 Noroeste 5 Noroeste 0 1015.8 1.1 77
2017-09-19 23:00:00 19.9 3 Noroeste 6 Norte 0 1015.3 1.2 74
2017-09-19 22:00:00 20.6 0 Calma 5 Sudoeste 0 1015.1 1.3 72
2017-09-19 21:00:00 21.5 3 Sudoeste 8 Este 0 1014.7 1.3 69
2017-09-19 20:00:00 22.6 5 Sudeste 14 Este 0 1014.1 0.9 64
2017-09-19 19:00:00 23.9 8 Sudeste 18 Sudeste 0 1013.8 0.3 60
2017-09-19 18:00:00 24.6 10 Sudeste 22 Sudeste 0 1013.4 -0.8 57
2017-09-19 17:00:00 25.9 10 Sur 20 Sur 0 1013.2 -1.6 54
2017-09-19 16:00:00 26.4 13 Sur 23 Sudeste 0 1013.5 -1.5 52
2017-09-19 15:00:00 26.5 13 Sudeste 26 Sudeste 0 1014.2 -1 49
2017-09-19 14:00:00 27 12 Sudeste 25 Este 0 1014.8 -0.5 42
2017-09-19 13:00:00 26.6 11 Sur 21 Sur 0 1015 -0.1 41
2017-09-19 12:00:00 25.2 5 Sudeste 15 Norte 0 1015.2 0.4 42
2017-09-19 11:00:00 22.5 9 Norte 24 Oeste 0 1015.3 0.6 46
2017-09-19 10:00:00 20.3 10 Noroeste 20 Noroeste 0 1015.1 0.6 53
2017-09-19 09:00:00 18.1 10 Noroeste 18 Noroeste 0 1014.8 0.7 62
2017-09-19 08:00:00 16.6 11 Noroeste 20 Noroeste 0 1014.7 0.5 70
2017-09-19 07:00:00 17 13 Oeste 22 Oeste 0 1014.5 0.2 69
2017-09-19 06:00:00 17.3 10 Oeste 18 Oeste 0 1014.1 -0.2 69
2017-09-19 05:00:00 17.1 6 Noroeste 20 Noroeste 0 1014.2 -0.4 73
2017-09-19 04:00:00 17.4 13 Oeste 18 Oeste 0 1014.3 -0.4 75
2017-09-19 03:00:00 17.6 9 Oeste 13 Noroeste 0 1014.3 -0.4 78
2017-09-19 02:00:00 18.2 8 Noroeste 14 Oeste 0 1014.6 0.1 76
2017-09-19 01:00:00 18.9 7 Oeste 11 Noroeste 0 1014.7 1.2 75
2017-09-19 00:00:00 19.8 2 Noroeste 6 Noroeste 0 1014.7 1.9 72
2017-09-18 23:00:00 20.6 4 Noroeste 8 Norte 0 1014.5 2.8 70
2017-09-18 22:00:00 21.5 3 Sudoeste 5 Sudoeste 0 1013.5 2.6 67
2017-09-18 21:00:00 22.4 3 Nordeste 8 Este 0 1012.8 2.3 63
2017-09-18 20:00:00 22.8 6 Este 16 Este 0 1011.7 1.8 58
2017-09-18 19:00:00 23.7 6 Nordeste 22 Este 0 1010.9 0.8 55
2017-09-18 18:00:00 24.2 10 Este 22 Sudeste 0 1010.5 0.5 54
2017-09-18 17:00:00 24.7 9 Este 28 Este 0 1009.9 -0.2 53
2017-09-18 16:00:00 25.7 10 Este 29 Este 0 1010.1 0 49
2017-09-18 15:00:00 25.8 13 Sudeste 28 Sudeste 0 1010 -0.3 56
2017-09-18 14:00:00 25.8 14 Sudeste 25 Este 0 1010.1 -0.4 59
2017-09-18 13:00:00 25.7 9 Este 19 Este 0 1010.1 -0.1 61
2017-09-18 12:00:00 25.6 8 Este 15 Este 0 1010.3 0.4 55
2017-09-18 11:00:00 22.4 3 Norte 14 Oeste 0 1010.5 1 66
2017-09-18 10:00:00 19.3 8 Oeste 16 Oeste 0 1010.2 1 66
2017-09-18 09:00:00 16.9 7 Oeste 17 Oeste 0 1009.9 0.8 78
2017-09-18 08:00:00 17.2 12 Noroeste 19 Noroeste 0 1009.5 0.6 74
2017-09-18 07:00:00 17.3 11 Oeste 19 Noroeste 0 1009.2 0 79
2017-09-18 06:00:00 17.4 11 Oeste 17 Noroeste 0 1009.1 -0.7 83
2017-09-18 05:00:00 17.6 5 Noroeste 14 Noroeste 0 1008.9 -1.3 84
2017-09-18 04:00:00 18.2 9 Oeste 18 Noroeste 0 1009.2 -1.3 84
2017-09-18 03:00:00 19 15 Oeste 22 Oeste 0 1009.8 -1 81
2017-09-18 02:00:00 19.3 11 Oeste 18 Oeste 0 1010.2 -0.7 83
2017-09-18 01:00:00 19.9 6 Noroeste 16 Oeste 0 1010.5 -0.5 84
2017-09-18 00:00:00 20.8 6 Noroeste 9 Oeste 0 1010.8 0.4 83
2017-09-17 23:00:00 22.1 6 Norte 9 Nordeste 0 1010.9 1 80
2017-09-17 22:00:00 22.3 4 Norte 6 Nordeste 0 1011 1.1 80
2017-09-17 21:00:00 22.7 3 Sur 11 Sudeste 0 1010.4 0.5 78
2017-09-17 20:00:00 23.2 7 Sur 19 Sudeste 0 1009.9 -0.2 75
2017-09-17 19:00:00 23.6 9 Sur 21 Sur 0 1009.9 -0.6 73
2017-09-17 18:00:00 23.8 12 Sur 22 Sudeste 0 1009.9 -1.4 69
2017-09-17 17:00:00 24 11 Sudeste 22 Sudeste 0 1010.1 -1.8 61
2017-09-17 16:00:00 25.2 14 Sudeste 24 Sudeste 0 1010.5 -2.2 54
2017-09-17 15:00:00 25.4 15 Sur 30 Sur 0 1011.3 -1.7 51
2017-09-17 14:00:00 25.2 17 Sudeste 27 Sudeste 0 1011.9 -1.5 52
2017-09-17 13:00:00 25.4 11 Sur 23 Sudeste 0 1012.7 -0.6 51
2017-09-17 12:00:00 23.9 9 Sur 20 Sur 0 1013 0.2 54
2017-09-17 11:00:00 20.6 5 Sudoeste 12 Sudoeste 0 1013.4 1.1 58
2017-09-17 10:00:00 17.8 10 Oeste 21 Oeste 0 1013.3 1.5 59
2017-09-17 09:00:00 15.5 9 Oeste 21 Noroeste 0 1012.8 1.1 66
2017-09-17 08:00:00 14.5 13 Oeste 19 Oeste 0 1012.3 0.7 71
2017-09-17 07:00:00 14.7 10 Noroeste 21 Noroeste 0 1011.8 0.1 71
2017-09-17 06:00:00 15.1 12 Oeste 21 Oeste 0 1011.7 -0.1 71
2017-09-17 05:00:00 14.7 9 Noroeste 18 Noroeste 0 1011.6 -0.3 73
2017-09-17 04:00:00 15 12 Oeste 20 Oeste 0 1011.7 -0.2 73
2017-09-17 03:00:00 15.3 13 Oeste 18 Oeste 0 1011.8 -0.3 72
2017-09-17 02:00:00 15.3 8 Oeste 14 Oeste 0 1011.9 0.2 72
2017-09-17 01:00:00 15.6 7 Noroeste 11 Oeste 0 1011.9 0.9 70
2017-09-17 00:00:00 16.1 5 Noroeste 10 Noroeste 0 1012.1 2 67
2017-09-16 23:00:00 17 4 Noroeste 11 Noroeste 0 1011.7 2.3 63
2017-09-16 22:00:00 17.7 0 Calma 4 Sudoeste 0 1011 2.4 58
2017-09-16 21:00:00 18.4 3 Sur 6 Sudoeste 0 1010.1 2.3 55
2017-09-16 20:00:00 19.5 3 Sudeste 15 Sudeste 0 1009.4 1.6 51
2017-09-16 19:00:00 20.6 10 Este 16 Sudeste 0 1008.6 0.7 50
2017-09-16 18:00:00 21.4 10 Sudeste 19 Sudeste 0 1007.8 -0.3 45
2017-09-16 17:00:00 23.1 10 Sudeste 18 Sudeste 0 1007.8 -0.7 42
2017-09-16 16:00:00 22.8 7 Sudeste 20 Este 0 1007.9 -0.9 39
2017-09-16 15:00:00 21.9 10 Sudeste 21 Este 0 1008.1 -1.2 38
2017-09-16 14:00:00 23 9 Sudeste 18 Sudeste 0 1008.5 -0.9 37
2017-09-16 13:00:00 22.9 7 Sudoeste 13 Sudoeste 0 1008.8 -0.1 34
2017-09-16 12:00:00 20.4 3 Este 9 Nordeste 0 1009.3 0.8 38
2017-09-16 11:00:00 18.4 3 Oeste 15 Oeste 0 1009.4 1.4 42
2017-09-16 10:00:00 16.6 8 Oeste 18 Oeste 0 1008.9 1.2 53
2017-09-16 09:00:00 15 9 Oeste 17 Noroeste 0 1008.5 0.7 61
2017-09-16 08:00:00 13.6 10 Oeste 17 Oeste 0 1008 0.2 69
2017-09-16 07:00:00 13.2 12 Oeste 19 Noroeste 0 1007.7 -0.2 72
2017-09-16 06:00:00 13.2 12 Oeste 17 Oeste 0 1007.8 -0.5 75
2017-09-16 05:00:00 13.1 5 Noroeste 15 Oeste 0 1007.8 -0.9 86
2017-09-16 04:00:00 14 7 Oeste 15 Noroeste 0 1007.9 -1.2 87
2017-09-16 03:00:00 14.2 4 Oeste 10 Oeste 0 1008.3 -1.1 84
2017-09-16 02:00:00 15 4 Noroeste 8 Noroeste 0 1008.7 -0.4 77
2017-09-16 01:00:00 15.7 3 Noroeste 7 Norte 0 1009.1 -0.3 77
2017-09-16 00:00:00 16.3 4 Nordeste 11 Nordeste 0 1009.4 0.5 71
2017-09-15 23:00:00 16.5 5 Nordeste 15 Nordeste 0 1009.1 1.1 69
2017-09-15 22:00:00 16.4 8 Norte 15 Norte 0 1009.4 1.9 65
2017-09-15 21:00:00 16.3 5 Este 13 Este 0 1008.9 1.4 73
2017-09-15 20:00:00 17 5 Este 23 Nordeste 0 1008 0.6 74
2017-09-15 19:00:00 16.9 12 Nordeste 22 Nordeste 0 1007.5 0.1 67
2017-09-15 18:00:00 16.8 8 Norte 21 Norte 0 1007.5 -0.4 70
2017-09-15 17:00:00 17.5 10 Norte 20 Norte 0 1007.4 -0.8 72
2017-09-15 16:00:00 18.6 11 Norte 20 Norte 0 1007.4 -0.7 64
2017-09-15 15:00:00 18.9 10 Norte 25 Nordeste 0 1007.9 -0.4 68
2017-09-15 14:00:00 19.5 14 Nordeste 22 Nordeste 0 1008.2 -0.2 64
2017-09-15 13:00:00 20 10 Nordeste 24 Nordeste 0 1008.1 -0.2 64
2017-09-15 12:00:00 20.3 7 Nordeste 26 Norte 0 1008.3 0.2 64
2017-09-15 11:00:00 20.4 6 Nordeste 21 Nordeste 0 1008.4 0.2 65
2017-09-15 10:00:00 20.2 11 Norte 21 Norte 0 1008.3 0.4 67
2017-09-15 09:00:00 20 11 Norte 20 Norte 0 1008.1 0.1 70
2017-09-15 08:00:00 19.6 6 Norte 17 Norte 0 1008.2 0 72
2017-09-15 07:00:00 19.8 6 Noroeste 30 Norte 0.6 1007.9 -0.8 77
2017-09-15 06:00:00 21.4 4 Nordeste 18 Nordeste 0 1008 -1.6 60
2017-09-15 05:00:00 22.1 9 Norte 15 Nordeste 0 1008.2 -1.4 49
2017-09-15 04:00:00 22.2 8 Norte 18 Norte 0 1008.7 -1.2 45
2017-09-15 03:00:00 22.1 3 Norte 12 Nordeste 0 1009.6 -0.3 50
2017-09-15 02:00:00 22.6 6 Nordeste 13 Norte 0 1009.6 -0.4 48
2017-09-15 01:00:00 23.1 4 Norte 9 Norte 0 1009.9 -0.1 54
2017-09-15 00:00:00 23.9 4 Nordeste 9 Norte 0 1009.9 0.3 68
2017-09-14 23:00:00 24.5 5 Nordeste 10 Norte 0 1010 1.3 70
2017-09-14 22:00:00 24.4 4 Nordeste 7 Nordeste 0 1010 2 75
2017-09-14 21:00:00 24.9 2 Nordeste 6 Nordeste 0 1009.6 1.7 74
2017-09-14 20:00:00 25.3 4 Nordeste 13 Este 0 1008.7 0.6 73
2017-09-14 19:00:00 26 6 Nordeste 22 Este 0 1008 -0.3 70
2017-09-14 18:00:00 27.1 10 Este 26 Este 0 1007.9 -1.1 64
2017-09-14 17:00:00 28.4 12 Este 27 Este 0 1008.1 -0.9 56
2017-09-14 16:00:00 28.9 10 Este 32 Este 0 1008.3 -1.1 55
2017-09-14 15:00:00 28.2 13 Este 31 Este 0 1009 -0.8 60
2017-09-14 14:00:00 28.5 11 Este 23 Este 0 1009 -1.1 59
2017-09-14 13:00:00 29.1 9 Sudeste 15 Sudeste 0 1009.4 -0.6 55
2017-09-14 12:00:00 28 11 Este 19 Sudeste 0 1009.8 -0.5 57
2017-09-14 11:00:00 25 4 Este 9 Este 0 1010.1 0 64
2017-09-14 10:00:00 22.2 6 Oeste 12 Oeste 0 1010 -0.3 74
2017-09-14 09:00:00 20.5 5 Noroeste 10 Oeste 0 1010.3 -0.2 84
2017-09-14 08:00:00 19 4 Noroeste 10 Oeste 0 1010.1 -0.5 89
2017-09-14 07:00:00 19.7 4 Noroeste 14 Oeste 0 1010.3 -0.8 88
2017-09-14 06:00:00 19.8 9 Oeste 14 Oeste 0 1010.5 -1.3 90
2017-09-14 05:00:00 20.1 6 Oeste 12 Noroeste 0 1010.6 -2 89
2017-09-14 04:00:00 20.4 6 Noroeste 12 Oeste 0 1011.1 -2.1 88
2017-09-14 03:00:00 21.2 6 Noroeste 10 Noroeste 0 1011.8 -2 87
2017-09-14 02:00:00 21.5 4 Noroeste 11 Oeste 0 1012.6 -1.7 87
2017-09-14 01:00:00 22.5 3 Noroeste 9 Norte 0 1013.2 -1 83
2017-09-14 00:00:00 23.3 5 Norte 8 Nordeste 0 1013.8 -0.1 82
2017-09-13 23:00:00 23.2 4 Nordeste 6 Nordeste 0 1014.3 0.5 83
2017-09-13 22:00:00 23.5 0 Calma 7 Este 0 1014.2 0.1 81
2017-09-13 21:00:00 23.9 5 Sudeste 15 Sur 0 1013.9 -0.6 79
2017-09-13 20:00:00 24.9 9 Sur 23 Sur 0 1013.8 -1 75
2017-09-13 19:00:00 25.7 15 Sur 26 Sur 0 1014.1 -1.2 70
2017-09-13 18:00:00 26.9 14 Sur 28 Sudeste 0 1014.5 -1.6 62
2017-09-13 17:00:00 28.1 14 Sudeste 26 Sudeste 0 1014.8 -1.9 59
2017-09-13 16:00:00 28.6 15 Sur 29 Sudeste 0 1015.3 -2 52
2017-09-13 15:00:00 29.1 16 Sudeste 27 Sudeste 0 1016.1 -1.3 46
2017-09-13 14:00:00 29.1 14 Sur 26 Sur 0 1016.7 -0.7 43
2017-09-13 13:00:00 28.6 13 Sur 25 Sur 0 1017.3 0.5 43
2017-09-13 12:00:00 27.9 11 Sur 19 Sudeste 0 1017.4 0.8 38
2017-09-13 11:00:00 24.8 6 Sur 12 Sur 0 1017.4 1 43
2017-09-13 10:00:00 21.4 6 Oeste 17 Sudoeste 0 1016.8 1 55
2017-09-13 09:00:00 19.4 11 Oeste 17 Oeste 0 1016.6 1.4 61
2017-09-13 08:00:00 18.1 11 Noroeste 19 Oeste 0 1016.4 1.1 68
2017-09-13 07:00:00 18.4 9 Oeste 15 Oeste 0 1015.8 0.2 71
2017-09-13 06:00:00 18.3 9 Noroeste 18 Noroeste 0 1015.2 -0.6 69
2017-09-13 05:00:00 18.4 6 Noroeste 17 Oeste 0 1015.3 -0.5 70
2017-09-13 04:00:00 18.8 10 Oeste 20 Oeste 0 1015.6 -0.2 71
2017-09-13 03:00:00 19 10 Oeste 15 Oeste 0 1015.8 0.1 72
2017-09-13 02:00:00 19 10 Oeste 14 Noroeste 0 1015.8 0.4 73
2017-09-13 01:00:00 19.6 5 Noroeste 10 Oeste 0 1015.8 1 71
2017-09-13 00:00:00 20.8 8 Oeste 12 Oeste 0 1015.7 1.9 67
2017-09-12 23:00:00 21.3 5 Noroeste 9 Noroeste 0 1015.4 2.7 63
2017-09-12 22:00:00 22 3 Sudoeste 5 Sudoeste 0 1014.8 2.8 62
2017-09-12 21:00:00 23 3 Sur 12 Sudeste 0 1013.8 2.7 58
2017-09-12 20:00:00 24.3 6 Sudeste 19 Este 0 1012.7 2 52
2017-09-12 19:00:00 25 9 Este 23 Este 0 1012 1.5 49
2017-09-12 18:00:00 26 10 Sudeste 29 Este 0 1011.1 0.5 42
2017-09-12 17:00:00 26.8 17 Sudeste 32 Este 0 1010.7 0.1 43
2017-09-12 16:00:00 28.3 14 Este 31 Este 0 1010.5 -0.4 34
2017-09-12 15:00:00 27.7 13 Este 28 Este 0 1010.6 0.1 34
2017-09-12 14:00:00 26.8 9 Este 24 Este 0 1010.6 0.2 36
2017-09-12 13:00:00 25.5 12 Nordeste 30 Nordeste 0 1010.9 1.4 38
2017-09-12 12:00:00 25.1 12 Norte 20 Nordeste 0 1010.5 1.7 40
2017-09-12 11:00:00 24 8 Norte 16 Norte 0 1010.4 2.4 43
2017-09-12 10:00:00 23.2 7 Norte 13 Norte 0 1009.5 2.5 45
2017-09-12 09:00:00 22.5 5 Norte 14 Norte 0 1008.8 2.5 49
2017-09-12 08:00:00 20.7 4 Noroeste 11 Noroeste 0 1008 2 55
2017-09-12 07:00:00 21.2 4 Noroeste 12 Oeste 0 1007 1 56
2017-09-12 06:00:00 20.8 7 Noroeste 12 Noroeste 0 1006.3 0.7 60
2017-09-12 05:00:00 21.7 8 Oeste 14 Noroeste 0 1006 0.6 60
2017-09-12 04:00:00 22.4 4 Oeste 13 Sudoeste 0 1006 0.8 58
2017-09-12 03:00:00 22.5 5 Sudoeste 14 Oeste 0 1005.6 0.6 59
2017-09-12 02:00:00 23.1 3 Sudoeste 8 Oeste 0 1005.4 0.8 57
2017-09-12 01:00:00 24.5 2 Nordeste 12 Noroeste 0 1005.2 1.3 52
2017-09-12 00:00:00 25 5 Noroeste 10 Noroeste 0 1005 1.9 50
2017-09-11 23:00:00 25.1 6 Oeste 11 Oeste 0 1004.6 1.9 50
2017-09-11 22:00:00 26.2 4 Noroeste 14 Oeste 0 1003.9 1.2 46
2017-09-11 21:00:00 26.7 2 Nordeste 10 Nordeste 0 1003.1 0.5 57
2017-09-11 20:00:00 28.3 5 Nordeste 13 Sudeste 0 1002.7 -0.2 48
2017-09-11 19:00:00 29.6 6 Sur 21 Sur 0 1002.7 -0.8 43
2017-09-11 18:00:00 30.4 9 Sur 28 Sur 0 1002.6 -1.6 42
2017-09-11 17:00:00 31.6 15 Sur 27 Sudeste 0 1002.9 -1.7 33
2017-09-11 16:00:00 33.2 14 Sur 26 Sur 0 1003.5 -1.4 26
2017-09-11 15:00:00 32.3 14 Sudeste 32 Sur 0 1004.2 -1.1 30
2017-09-11 14:00:00 32.8 14 Sur 26 Sur 0 1004.6 -0.9 27
2017-09-11 13:00:00 32.5 15 Sudeste 25 Sudeste 0 1004.9 -0.6 32
2017-09-11 12:00:00 31 4 Sudeste 16 Oeste 0 1005.3 -0.4 29
2017-09-11 11:00:00 27.6 9 Oeste 19 Noroeste 0 1005.5 0 34
2017-09-11 10:00:00 24.2 11 Oeste 18 Noroeste 0 1005.5 0.4 38
2017-09-11 09:00:00 20.8 11 Noroeste 18 Oeste 0 1005.7 0.6 49
2017-09-11 08:00:00 19 9 Noroeste 18 Oeste 0 1005.5 0.1 56
2017-09-11 07:00:00 19 9 Noroeste 16 Noroeste 0 1005.1 0 57
2017-09-11 06:00:00 18.6 9 Oeste 15 Noroeste 0 1005.1 -0.4 63
2017-09-11 05:00:00 18.7 7 Noroeste 14 Noroeste 0 1005.4 -0.5 61
2017-09-11 04:00:00 19.3 5 Oeste 12 Oeste 0 1005.1 -1.1 64
2017-09-11 03:00:00 20.1 6 Oeste 17 Oeste 0 1005.5 -0.9 60
2017-09-11 02:00:00 20.4 3 Oeste 12 Noroeste 0 1005.9 -0.7 63
2017-09-11 01:00:00 21.6 3 Sudoeste 11 Sudoeste 0 1006.2 -0.1 58
2017-09-11 00:00:00 22.4 3 Noroeste 9 Nordeste 0 1006.4 0.7 60
2017-09-10 23:00:00 22.3 4 Sudoeste 15 Sudeste 0 1006.6 1.6 60
2017-09-10 22:00:00 22.7 6 Sudeste 14 Sur 0 1006.3 2.1 51
2017-09-10 21:00:00 23.4 4 Este 16 Sudeste 0 1005.7 1.6 49
2017-09-10 20:00:00 24.9 9 Sur 23 Sudeste 0 1005 0.8 42
2017-09-10 19:00:00 26.7 12 Sudeste 21 Sudeste 0 1004.2 -0.3 37
2017-09-10 18:00:00 27.4 8 Sudeste 25 Sudeste 0 1004.1 -0.6 29
2017-09-10 17:00:00 27.4 10 Sudeste 25 Sudeste 0 1004.2 -0.2 31
2017-09-10 16:00:00 28.1 4 Sudoeste 23 Sur 0 1004.5 0.1 28
2017-09-10 15:00:00 28.4 10 Sur 23 Sur 0 1004.7 0 28
2017-09-10 14:00:00 27.6 5 Sur 24 Norte 0 1004.4 -0.2 29
2017-09-10 13:00:00 26 11 Norte 37 Norte 0 1004.4 0.3 27
2017-09-10 12:00:00 24.7 5 Este 36 Norte 0 1004.7 0.7 32
2017-09-10 11:00:00 22 5 Oeste 21 Sudoeste 0 1004.6 1.1 38
2017-09-10 10:00:00 20.1 10 Noroeste 19 Oeste 0 1004.1 1.2 41
2017-09-10 09:00:00 18.1 10 Oeste 15 Oeste 0 1004 1.7 48
2017-09-10 08:00:00 17.3 4 Norte 13 Oeste 0 1003.5 1.2 46
2017-09-10 07:00:00 16.8 2 Norte 7 Sudoeste 0 1002.9 0.7 53
2017-09-10 06:00:00 18.5 5 Oeste 26 Norte 0 1002.3 0.2 46
2017-09-10 05:00:00 19.8 14 Norte 32 Norte 0 1002.3 0 39
2017-09-10 04:00:00 19.6 7 Noroeste 15 Norte 0 1002.2 0.3 42
2017-09-10 03:00:00 19.8 5 Noroeste 17 Noroeste 0 1002.1 0.1 43
2017-09-10 02:00:00 20 10 Noroeste 30 Norte 0 1002.3 0.6 42
2017-09-10 01:00:00 19.8 9 Noroeste 21 Noroeste 0 1001.9 0.6 47
2017-09-10 00:00:00 18.8 2 Sudoeste 14 Sudoeste 0 1002 2.5 73
2017-09-09 23:00:00 20.6 6 Sudoeste 28 Norte 0 1001.7 2.4 65
2017-09-09 22:00:00 22 14 Norte 37 Norte 0 1001.3 2.4 42
2017-09-09 21:00:00 22.3 17 Norte 39 Norte 0 999.5 0.8 47
2017-09-09 20:00:00 23.2 4 Nordeste 14 Norte 0 999.3 0.5 45
2017-09-09 19:00:00 23.8 8 Nordeste 17 Nordeste 0 998.9 0.2 43
2017-09-09 18:00:00 23.9 11 Nordeste 18 Nordeste 0 998.7 0 45
2017-09-09 17:00:00 23.8 8 Norte 23 Norte 0 998.8 -0.2 51
2017-09-09 16:00:00 24.3 13 Norte 22 Nordeste 0 998.7 -0.2 50
2017-09-09 15:00:00 24.6 3 Sudeste 9 Sudeste 0 998.7 -0.3 63
2017-09-09 14:00:00 24.9 3 Sudeste 10 Nordeste 0 999 0 67
2017-09-09 13:00:00 24.3 5 Nordeste 18 Este 0 998.9 0.1 75
2017-09-09 12:00:00 24.6 8 Este 18 Este 0 999 0.3 71
2017-09-09 11:00:00 23.9 5 Nordeste 23 Oeste 0 999 0 71
2017-09-09 10:00:00 22.4 13 Oeste 23 Oeste 0 998.8 -0.4 69
2017-09-09 09:00:00 21.1 10 Oeste 17 Oeste 0 998.7 -1.1 81
2017-09-09 08:00:00 20.4 5 Noroeste 13 Oeste 0 999 -1.1 88
2017-09-09 07:00:00 20.6 8 Oeste 13 Noroeste 0 999.2 -1.6 86
2017-09-09 06:00:00 20.6 6 Noroeste 12 Noroeste 0 999.8 -2.1 87
2017-09-09 05:00:00 21.3 3 Noroeste 9 Oeste 0 1000.1 -2.6 90
2017-09-09 04:00:00 21.2 5 Oeste 10 Oeste 0 1000.8 -2.7 89
2017-09-09 03:00:00 21.9 4 Noroeste 10 Noroeste 0 1001.9 -2.8 87
2017-09-09 02:00:00 22.3 3 Noroeste 8 Noroeste 0 1002.7 -2.6 86
2017-09-09 01:00:00 23.1 3 Noroeste 6 Oeste 0 1003.5 -1.8 87
2017-09-09 00:00:00 23.7 3 Noroeste 7 Norte 0 1004.7 -0.4 83
2017-09-08 23:00:00 24.2 5 Norte 8 Este 0 1005.3 0.2 82
2017-09-08 22:00:00 24.7 6 Este 11 Sudeste 0 1005.3 -0.2 78
2017-09-08 21:00:00 25 2 Nordeste 11 Sudeste 0 1005.1 -0.9 80
2017-09-08 20:00:00 25.4 6 Este 17 Sudeste 0 1005.1 -1.1 78
2017-09-08 19:00:00 25.9 10 Sudeste 21 Este 0 1005.5 -1.4 74
2017-09-08 18:00:00 26 12 Este 23 Sudeste 0 1006 -1.4 75
2017-09-08 17:00:00 27.3 11 Sudeste 26 Sudeste 0 1006.2 -1.9 68
2017-09-08 16:00:00 28 15 Sudeste 26 Este 0 1006.9 -1.7 63
2017-09-08 15:00:00 28.6 12 Sudeste 27 Sudeste 0 1007.4 -1.8 58
2017-09-08 14:00:00 27.9 11 Este 24 Este 0 1008.1 -1.7 56
2017-09-08 13:00:00 28.3 10 Sudeste 18 Sudeste 0 1008.6 -1.3 50
2017-09-08 12:00:00 27.3 4 Sudeste 13 Este 0 1009.2 -0.6 54
2017-09-08 11:00:00 24.4 3 Sudeste 11 Oeste 0 1009.8 0.5 60
2017-09-08 10:00:00 21.6 9 Oeste 16 Oeste 0 1009.9 1 58
2017-09-08 09:00:00 19.9 9 Noroeste 21 Oeste 0 1009.8 0.8 59
2017-09-08 08:00:00 18.8 8 Noroeste 21 Noroeste 0 1009.3 -0.3 64
2017-09-08 07:00:00 19 9 Noroeste 19 Noroeste 0 1008.9 -0.9 66
2017-09-08 06:00:00 18.7 14 Oeste 19 Oeste 0 1009 -1.5 81
2017-09-08 05:00:00 19.2 13 Oeste 20 Oeste 0 1009.6 -1.1 78
2017-09-08 04:00:00 20 10 Oeste 19 Noroeste 0 1009.8 -0.9 82
2017-09-08 03:00:00 20.1 13 Oeste 17 Oeste 0 1010.5 -0.2 88
2017-09-08 02:00:00 20.6 5 Noroeste 10 Noroeste 0 1010.7 -0.1 87
2017-09-08 01:00:00 21.3 5 Noroeste 10 Noroeste 0 1010.7 0 85
2017-09-08 00:00:00 22 3 Oeste 7 Oeste 0 1010.7 0.5 83
2017-09-07 23:00:00 22.6 4 Sudoeste 7 Sudoeste 0 1010.8 1.2 82
2017-09-07 22:00:00 23.2 2 Sur 7 Sur 0 1010.7 1.3 78
2017-09-07 21:00:00 23.7 3 Sur 11 Sur 0 1010.2 0.6 76
2017-09-07 20:00:00 24.7 6 Sur 17 Sudeste 0 1009.6 -0.7 72
2017-09-07 19:00:00 25.9 9 Sur 17 Sur 0 1009.4 -1.3 66
2017-09-07 18:00:00 26.7 9 Sur 17 Sur 0 1009.6 -1.9 61
2017-09-07 17:00:00 27.1 8 Sur 20 Sudeste 0 1010.3 -1.4 58
2017-09-07 16:00:00 26.8 10 Sudeste 25 Este 0 1010.7 -1.5 55
2017-09-07 15:00:00 26.9 12 Sudeste 24 Este 0 1011.5 -1 55
2017-09-07 14:00:00 25.9 15 Este 26 Sudeste 0 1011.7 -0.6 57
2017-09-07 13:00:00 27.2 10 Sudeste 21 Este 0 1012.2 0.1 57
2017-09-07 12:00:00 27.2 9 Sudeste 17 Sudeste 0 1012.5 0.4 57
2017-09-07 11:00:00 25.9 8 Sudeste 14 Sur 0 1012.3 0.1 61
2017-09-07 10:00:00 23.9 3 Norte 10 Noroeste 0 1012.1 0.3 64
2017-09-07 09:00:00 22 5 Noroeste 10 Noroeste 0 1012.1 0 70
2017-09-07 08:00:00 21.3 7 Noroeste 14 Oeste 0 1012.2 -0.1 72
2017-09-07 07:00:00 21.5 7 Oeste 15 Oeste 0 1011.8 -0.7 71
2017-09-07 06:00:00 21.1 6 Oeste 12 Oeste 0 1012.1 -0.4 78
2017-09-07 05:00:00 21.1 3 Noroeste 8 Oeste 0 1012.3 -0.9 82
2017-09-07 04:00:00 21.4 4 Noroeste 7 Noroeste 0 1012.5 -1.1 83
2017-09-07 03:00:00 21.7 3 Noroeste 9 Oeste 0 1012.5 -1 84
2017-09-07 02:00:00 22.1 3 Noroeste 8 Noroeste 0 1013.2 -0.7 84
2017-09-07 01:00:00 22.8 4 Noroeste 9 Noroeste 0 1013.6 -0.1 84
2017-09-07 00:00:00 23.4 2 Norte 5 Norte 0 1013.5 0.2 84
2017-09-06 23:00:00 23.7 3 Sudoeste 6 Sudoeste 0 1013.9 0.9 84
2017-09-06 22:00:00 24.2 3 Sur 9 Sur 0 1013.7 0.2 82
2017-09-06 21:00:00 24.7 4 Sur 10 Sur 0 1013.3 -0.4 80
2017-09-06 20:00:00 25.6 5 Sur 9 Sur 0 1013 -1.2 75
2017-09-06 19:00:00 26.2 5 Sur 11 Sur 0 1013.5 -1 73
2017-09-06 18:00:00 26.7 6 Sudeste 15 Sur 0 1013.7 -1.3 71
2017-09-06 17:00:00 27.3 6 Sur 21 Este 0 1014.2 -1.2 63
2017-09-06 16:00:00 27.1 11 Este 22 Sudeste 0 1014.5 -1.3 67
2017-09-06 15:00:00 28.8 13 Sudeste 26 Este 0 1015 -0.9 61
2017-09-06 14:00:00 28.4 11 Sudeste 21 Sudeste 0 1015.4 -0.6 67
2017-09-06 13:00:00 28.4 10 Este 21 Este 0 1015.8 0 64
2017-09-06 12:00:00 28.5 8 Este 18 Este 0 1015.9 0.3 55
2017-09-06 11:00:00 27.4 6 Este 14 Este 0 1016 0.8 62
2017-09-06 10:00:00 25.6 3 Sudeste -- -- -- 1015.8 1.1 76
2017-09-06 09:00:00 23.4 4 Noroeste 8 Noroeste 0 1015.6 0.9 82
2017-09-06 08:00:00 22.2 5 Noroeste 8 Oeste 0 1015.2 0.5 86
2017-09-06 07:00:00 22.2 3 Noroeste 7 Noroeste 0 1014.7 -0.2 87
2017-09-06 06:00:00 22.2 3 Noroeste 7 Oeste 0 1014.7 -0.4 87
2017-09-06 05:00:00 23.1 3 Noroeste 5 Norte 0 1014.7 -0.7 84
2017-09-06 04:00:00 23.1 3 Norte 8 Norte 0 1014.9 -0.8 85
2017-09-06 03:00:00 23.3 4 Sudoeste 10 Noroeste 0 1015.1 -1 85
2017-09-06 02:00:00 23.6 4 Noroeste 12 Oeste 0 1015.4 -0.5 83
2017-09-06 01:00:00 24.1 6 Sudoeste 8 Sudoeste 0 1015.7 0 80
2017-09-06 00:00:00 24.3 4 Noroeste 8 Oeste 0 1016.1 1.1 79
2017-09-05 23:00:00 24.5 4 Sur 6 Sur 0 1015.9 1.2 76
2017-09-05 22:00:00 24.9 3 Sur 6 Sur 0 1015.7 1.2 75
2017-09-05 21:00:00 25.4 4 Sur 9 Sudoeste 0 1015 0.8 73
2017-09-05 20:00:00 26.6 7 Sur 14 Este 0 1014.7 0.4 68
2017-09-05 19:00:00 27.6 8 Sudeste 21 Sudeste 0 1014.5 -0.1 64
2017-09-05 18:00:00 28.5 10 Sudeste 23 Este 0 1014.2 -0.9 60
2017-09-05 17:00:00 29.9 11 Sudeste 23 Este 0 1014.3 -1.4 54
2017-09-05 16:00:00 29.9 12 Sudeste 26 Sudeste 0 1014.6 -1.4 54
2017-09-05 15:00:00 30 10 Sudeste 21 Este 0 1015.1 -1.3 58
2017-09-05 14:00:00 29.8 12 Sudeste 22 Este 0 1015.7 -0.5 60
2017-09-05 13:00:00 29.4 9 Sudeste 17 Sudeste 0 1016 0 59
2017-09-05 12:00:00 28.6 10 Sudeste 17 Este 0 1016.4 0.4 62
2017-09-05 11:00:00 26.6 4 Sur 13 Noroeste 0 1016.2 0.7 68
2017-09-05 10:00:00 24.2 7 Noroeste 18 Oeste 0 1016 0.8 74
2017-09-05 09:00:00 22.2 9 Oeste 19 Oeste 0 1016 1 80
2017-09-05 08:00:00 21.1 11 Oeste 18 Noroeste 0 1015.5 0.9 87
2017-09-05 07:00:00 21.5 8 Oeste 16 Noroeste 0 1015.2 0.5 88
2017-09-05 06:00:00 21.7 9 Oeste 17 Oeste 0 1015 0.5 90
2017-09-05 05:00:00 21.9 4 Noroeste 14 Noroeste 0 1014.6 -0.1 89
2017-09-05 04:00:00 22 10 Oeste 15 Oeste 0 1014.7 0 89
2017-09-05 03:00:00 22.2 5 Noroeste 8 Noroeste 0 1014.5 0 89
2017-09-05 02:00:00 22.6 3 Noroeste 8 Noroeste 0 1014.7 0.6 88
2017-09-05 01:00:00 23.5 5 Noroeste 12 Norte 0 1014.7 1.2 84
2017-09-05 00:00:00 24.8 7 Norte 12 Norte 0 1014.5 1.9 83
2017-09-04 23:00:00 25.1 6 Norte 12 Nordeste 0 1014.1 2.4 80
2017-09-04 22:00:00 25.1 4 Nordeste 10 Nordeste 0 1013.5 2 76
2017-09-04 21:00:00 25.5 5 Nordeste 14 Nordeste 0 1012.6 2.1 76
2017-09-04 20:00:00 25.9 6 Nordeste 18 Norte 0 1011.7 1.7 75
2017-09-04 19:00:00 26.2 5 Este 20 Este 0 1011.5 2.1 74
2017-09-04 18:00:00 26.4 8 Este 21 Este 0 1010.5 1.4 78
2017-09-04 17:00:00 27 9 Este 26 Este 0 1010 1.4 74
2017-09-04 16:00:00 28.6 12 Este 33 Este 0 1009.4 0.8 67
2017-09-04 15:00:00 29.3 14 Este 34 Este 0 1009.1 0.7 63
2017-09-04 14:00:00 29.3 13 Este 30 Este 0 1008.6 0.3 62
2017-09-04 13:00:00 29.1 10 Este 24 Este 0 1008.6 0.7 63
2017-09-04 12:00:00 28.2 5 Norte 18 Norte 0 1008.4 1.1 62
2017-09-04 11:00:00 26.4 5 Nordeste 13 Noroeste 0 1008.3 1.4 69
2017-09-04 10:00:00 23.8 11 Oeste 19 Oeste 0 1007.9 1.4 65
2017-09-04 09:00:00 21.1 10 Oeste 19 Oeste 0 1007.3 1.2 73
2017-09-04 08:00:00 20.3 10 Oeste 20 Oeste 0 1006.9 0.5 77
2017-09-04 07:00:00 20.3 13 Oeste 20 Noroeste 0 1006.5 -0.3 79
2017-09-04 06:00:00 20.6 8 Oeste 15 Oeste 0 1006.1 -1 83
2017-09-04 05:00:00 21 8 Oeste 14 Oeste 0 1006.4 -0.9 79
2017-09-04 04:00:00 21.2 8 Oeste 13 Oeste 0 1006.8 -0.4 79
2017-09-04 03:00:00 21.4 5 Noroeste 8 Oeste 0 1007.1 -0.3 80
2017-09-04 02:00:00 21.5 3 Oeste 6 Oeste 0 1007.3 -0.8 83
2017-09-04 01:00:00 21.6 5 Noroeste 14 Noroeste 0 1007.2 -0.5 82
2017-09-04 00:00:00 22.4 9 Oeste 12 Noroeste 0 1007.4 0.1 82
2017-09-03 23:00:00 22.8 4 Noroeste 9 Noroeste 0 1008.1 1.2 80
2017-09-03 22:00:00 23.6 4 Norte 6 Nordeste 0 1007.7 0.7 78
2017-09-03 21:00:00 23.9 4 Nordeste 8 Nordeste 0 1007.3 0.5 76
2017-09-03 20:00:00 24.9 7 Este 14 Este 0 1006.9 -0.1 69
2017-09-03 19:00:00 25.6 7 Este 17 Este 0 1007 -0.5 65
2017-09-03 18:00:00 26.3 9 Este 18 Este 0 1006.8 -1.3 64
2017-09-03 17:00:00 26.8 8 Este 17 Sudeste 0 1007 -1.6 63
2017-09-03 16:00:00 27.2 8 Este 18 Este 0 1007.5 -2.1 59
2017-09-03 15:00:00 27.7 10 Sudeste 20 Sudeste 0 1008.1 -2 57
2017-09-03 14:00:00 28 9 Sudeste 15 Este 0 1008.6 -2 50
2017-09-03 13:00:00 26.9 6 Sur 14 Sur 0 1009.6 -1 56
2017-09-03 12:00:00 25.9 7 Sur 14 Sur 0 1010.1 -0.7 57
2017-09-03 11:00:00 24.1 7 Sudoeste 14 Sudoeste 0 1010.6 -0.4 48
2017-09-03 10:00:00 21 11 Oeste 19 Oeste 0 1010.6 -0.4 60
2017-09-03 09:00:00 19.4 12 Oeste 19 Noroeste 0 1010.8 -0.4 65
2017-09-03 08:00:00 18.7 11 Noroeste 23 Oeste 0 1011 -0.8 70
2017-09-03 07:00:00 18.2 13 Oeste 21 Oeste 0 1011 -1.5 75
2017-09-03 06:00:00 18.2 14 Oeste 21 Oeste 0 1011.2 -1.7 80
2017-09-03 05:00:00 18.8 9 Noroeste 19 Noroeste 0 1011.8 -2 77
2017-09-03 04:00:00 18.9 12 Oeste 19 Oeste 0 1012.5 -1.9 76
2017-09-03 03:00:00 19.1 10 Noroeste 19 Noroeste 0 1012.9 -1.7 77
2017-09-03 02:00:00 19.6 8 Noroeste 16 Noroeste 0 1013.8 -0.6 76
2017-09-03 01:00:00 20.1 6 Noroeste 14 Oeste 0 1014.4 0.2 75
2017-09-03 00:00:00 20.7 5 Noroeste 16 Oeste 0 1014.6 1 74
2017-09-02 23:00:00 21.8 6 Oeste 9 Oeste 0 1014.4 1.1 68
2017-09-02 22:00:00 22.2 3 Sur 8 Sur 0 1014.2 1.2 66
2017-09-02 21:00:00 23 4 Sur 13 Sur 0 1013.6 0.6 63
2017-09-02 20:00:00 24.3 9 Sur 17 Sur 0 1013.3 0.1 56
2017-09-02 19:00:00 25.4 9 Sur 20 Sur 0 1013 -0.6 53
2017-09-02 18:00:00 26.5 9 Sur 23 Sur 0 1013 -1.2 49
2017-09-02 17:00:00 27.7 11 Sur 28 Este 0 1013.2 -1.3 42
2017-09-02 16:00:00 28.5 10 Sur 24 Sur 0 1013.6 -1.4 35
2017-09-02 15:00:00 28.1 12 Sudeste 21 Sur 0 1014.2 -1.3 32
2017-09-02 14:00:00 28.3 13 Sur 25 Sur 0 1014.5 -1.2 30
2017-09-02 13:00:00 27.3 4 Sudeste 14 Norte 0 1015 -0.8 27
2017-09-02 12:00:00 25.3 8 Oeste 24 Oeste 0 1015.5 0 31
2017-09-02 11:00:00 23.2 13 Oeste 25 Oeste 0 1015.7 0.5 38
2017-09-02 10:00:00 21.2 17 Oeste 28 Oeste 0 1015.8 0.9 41
2017-09-02 09:00:00 19.7 11 Noroeste 23 Oeste 0 1015.5 1 48
2017-09-02 08:00:00 18.7 9 Noroeste 21 Oeste 0 1015.2 0.6 54
2017-09-02 07:00:00 19 13 Oeste 23 Oeste 0 1014.9 0.2 54
2017-09-02 06:00:00 19.3 13 Oeste 22 Oeste 0 1014.5 -0.1 54
2017-09-02 05:00:00 19.9 12 Oeste 22 Noroeste 0 1014.6 0.2 55
2017-09-02 04:00:00 20.7 10 Noroeste 21 Oeste 0 1014.7 0.4 49
2017-09-02 03:00:00 21.9 8 Noroeste 22 Noroeste 0 1014.6 0.5 42
2017-09-02 02:00:00 22.2 10 Norte 18 Norte 0 1014.4 0.5 43
2017-09-02 01:00:00 22.7 3 Norte 21 Norte 0 1014.3 1.1 43
2017-09-02 00:00:00 22.5 10 Nordeste 20 Nordeste 0 1014.1 1.7 51
2017-09-01 23:00:00 22.3 5 Noroeste 10 Oeste 0 1013.9 1.9 71
2017-09-01 22:00:00 23.3 5 Noroeste 10 Norte 0 1013.2 1.3 66
2017-09-01 21:00:00 24.1 4 Nordeste 7 Sudeste 0 1012.4 0.6 63
2017-09-01 20:00:00 24.6 7 Sudeste 14 Sudeste 0 1012 0.3 61
2017-09-01 19:00:00 25.2 9 Este 14 Sudeste 0 1011.9 0 60
2017-09-01 18:00:00 25.5 10 Este 19 Este 0 1011.8 -0.7 57
2017-09-01 17:00:00 26.3 11 Este 23 Este 0 1011.7 -1.2 52
2017-09-01 16:00:00 26.6 13 Este 24 Sudeste 0 1011.9 -1.2 50
2017-09-01 15:00:00 26.8 14 Este 25 Este 0 1012.5 -0.9 46
2017-09-01 14:00:00 27.2 10 Este 26 Sudeste 0 1012.9 -0.6 44
2017-09-01 13:00:00 27.7 11 Sudeste 23 Sudeste 0 1013.1 -0.2 46
2017-09-01 12:00:00 26.8 7 Norte 17 Nordeste 0 1013.4 0.4 44
2017-09-01 11:00:00 24.3 2 Norte 8 Nordeste 0 1013.5 1.2 52
2017-09-01 10:00:00 23.2 5 Noroeste 9 Norte 0 1013.3 1.2 59
2017-09-01 09:00:00 22.2 4 Norte 13 Oeste 0 1013 0.9 60
2017-09-01 08:00:00 21.2 6 Oeste 9 Oeste 0 1012.3 0 65
2017-09-01 07:00:00 21.3 5 Noroeste 13 Oeste 0 1012.1 -0.4 66
2017-09-01 06:00:00 21.1 7 Oeste 13 Oeste 0 1012.1 -0.6 73
2017-09-01 05:00:00 21.4 5 Noroeste 17 Noroeste 0 1012.3 -0.6 76
2017-09-01 04:00:00 21.5 7 Noroeste 17 Oeste 0 1012.5 -0.6 80
2017-09-01 03:00:00 21.6 8 Noroeste 17 Oeste 0 1012.7 -0.4 84
2017-09-01 02:00:00 21.3 10 Oeste 16 Noroeste 0 1012.9 0 85
2017-09-01 01:00:00 21.5 11 Oeste 19 Oeste 0 1013.1 0.4 86
2017-09-01 00:00:00 21.3 13 Oeste 17 Oeste 0 1013.1 0.8 87
2017-08-31 23:00:00 21.8 9 Noroeste 16 Oeste 0 1012.9 1.7 85
2017-08-31 22:00:00 22.3 9 Noroeste 18 Noroeste 0 1012.7 1.7 83
2017-08-31 21:00:00 23 12 Oeste 17 Noroeste 0 1012.3 1.9 82
2017-08-31 20:00:00 24.9 6 Este 13 Este 0 1011.2 0.9 73
2017-08-31 19:00:00 25.3 6 Este 18 Este 0 1011 0.2 71
2017-08-31 18:00:00 26.6 11 Este 23 Sudeste 0 1010.4 -1.1 63
2017-08-31 17:00:00 27.5 9 Este 19 Sudeste 0 1010.3 -1.4 61
2017-08-31 16:00:00 27.4 6 Nordeste 26 Sudeste 0 1010.8 -1.3 58
2017-08-31 15:00:00 26.9 13 Este 23 Este 0 1011.5 -0.7 58
2017-08-31 14:00:00 27.3 12 Sudeste 22 Sudeste 0 1011.7 0.2 58
2017-08-31 13:00:00 25.4 8 Sudeste 14 Sudeste 0.4 1012.1 1.2 67
2017-08-31 12:00:00 26.1 6 Sudeste 10 Este 0 1012.2 2.1 57
2017-08-31 11:00:00 25.1 3 Nordeste 9 Oeste 0 1011.5 1.8 60
2017-08-31 10:00:00 23.5 4 Noroeste 9 Noroeste 0 1010.9 2 71
2017-08-31 09:00:00 23.1 0 Calma 7 Noroeste 0 1010.1 1.7 74
2017-08-31 08:00:00 22.8 6 Oeste 9 Oeste 0 1009.7 1.7 77
2017-08-31 07:00:00 22.7 4 Noroeste 14 Oeste 0 1008.9 0.9 83
2017-08-31 06:00:00 22.9 12 Oeste 19 Oeste 0 1008.4 0.1 85
2017-08-31 05:00:00 23 8 Noroeste 17 Oeste 0 1008 -0.8 81
2017-08-31 04:00:00 23.2 10 Oeste 17 Oeste 0 1008 -0.6 83
2017-08-31 03:00:00 23.1 6 Oeste 12 Oeste 0 1008.3 -0.4 86
2017-08-31 02:00:00 23.6 4 Noroeste 9 Oeste 0 1008.8 0.3 84
2017-08-31 01:00:00 24.2 0 Calma 5 Nordeste 0 1008.6 0.3 79
2017-08-31 00:00:00 24.5 4 Noroeste 7 Oeste 0 1008.7 0.9 78
2017-08-30 23:00:00 24.7 2 Sur 7 Sudoeste 0 1008.5 1.2 76
2017-08-30 22:00:00 25 2 Este 12 Sur 0 1008.3 1.1 74
2017-08-30 21:00:00 25.5 6 Sudeste 15 Este 0 1007.8 0.4 74
2017-08-30 20:00:00 26.3 6 Sur 24 Sur 0 1007.3 -0.9 70
2017-08-30 19:00:00 26.4 11 Sur 21 Sur 0 1007.2 -1.3 69
2017-08-30 18:00:00 26.8 9 Sur 24 Sur 0 1007.4 -1.3 67
2017-08-30 17:00:00 27.8 13 Sur 24 Sudeste 0 1008.2 -0.7 63
2017-08-30 16:00:00 27.3 13 Sur 26 Sudeste 0 1008.5 -0.7 64
2017-08-30 15:00:00 26.4 11 Sur 24 Sudeste 0 1008.7 -1.2 67
2017-08-30 14:00:00 25.6 9 Sur 18 Sudeste 0 1008.9 -1.1 68
2017-08-30 13:00:00 25.8 9 Sur 15 Sur 0 1009.2 -0.5 70
2017-08-30 12:00:00 25.3 6 Sur 15 Sudoeste 0 1009.9 0.1 66
2017-08-30 11:00:00 22.6 3 Oeste 14 Oeste 0 1010 0.1 79
2017-08-30 10:00:00 21.2 8 Noroeste 17 Noroeste 0 1009.7 -1.1 85
2017-08-30 09:00:00 20.4 6 Noroeste 16 Oeste 0 1009.8 -0.6 91
2017-08-30 08:00:00 20.1 6 Norte 18 Norte 0.4 1009.9 -0.8 95
2017-08-30 07:00:00 20 0 Calma 9 Noroeste 0.2 1010.8 0.4 95
2017-08-30 06:00:00 19.8 4 Noroeste 11 Oeste 0.2 1010.4 -0.8 94
2017-08-30 05:00:00 19.8 4 Noroeste 16 Oeste 0 1010.7 -1.6 94
2017-08-30 04:00:00 19.8 4 Noroeste 14 Este 0.4 1010.4 -1.7 94
2017-08-30 03:00:00 19.7 4 Nordeste 9 Norte 1.4 1011.2 -0.3 94
2017-08-30 02:00:00 19.9 5 Norte 8 Sudoeste 3.6 1012.3 3.3 93
2017-08-30 01:00:00 20 5 Oeste 14 Oeste 3 1012.1 3.1 90
2017-08-30 00:00:00 21.5 6 Oeste 23 Oeste 0 1011.5 2.5 79
2017-08-29 23:00:00 21.6 13 Oeste 22 Oeste 0 1009 -1 73
2017-08-29 22:00:00 21.6 10 Noroeste 22 Noroeste 0 1009 -0.7 70
2017-08-29 21:00:00 21.3 15 Noroeste 31 Noroeste 0.2 1009 -1.5 74
2017-08-29 20:00:00 22 15 Noroeste 26 Noroeste 0 1010 -0.6 80
2017-08-29 19:00:00 21 6 Noroeste 26 Sudoeste 2 1009.7 -0.7 91
2017-08-29 18:00:00 21.2 10 Oeste 20 Noroeste 0.8 1010.5 0.8 87
2017-08-29 17:00:00 22.1 6 Noroeste 21 Oeste 1 1010.6 0.8 86
2017-08-29 16:00:00 23.4 5 Noroeste 15 Oeste 0.2 1010.4 1.7 82
2017-08-29 15:00:00 23.3 5 Noroeste 17 Noroeste 0.2 1009.7 0.7 85
2017-08-29 14:00:00 25 6 Noroeste 14 Norte 0 1009.8 1.3 77
2017-08-29 13:00:00 24.5 6 Sudeste 32 Sudeste 2.2 1008.7 0.5 86
2017-08-29 12:00:00 26.6 6 Nordeste 15 Nordeste 0 1009 0.7 74
2017-08-29 11:00:00 26.6 4 Este 11 Sudeste 0 1008.5 0.3 74
2017-08-29 10:00:00 26 4 Noroeste 15 Oeste 0 1008.2 -0.9 74
2017-08-29 09:00:00 23 11 Oeste 20 Oeste 0 1008.3 -0.2 83
2017-08-29 08:00:00 22.1 7 Noroeste 18 Oeste 0.2 1008.2 0.2 87
2017-08-29 07:00:00 22.9 11 Oeste 19 Oeste 0.8 1009.1 1.7 81
2017-08-29 06:00:00 23.4 8 Oeste 13 Oeste 0 1008.5 0.6 79
2017-08-29 05:00:00 23.6 7 Oeste 13 Oeste 0 1008 -0.1 82
2017-08-29 04:00:00 23.7 4 Noroeste 11 Oeste 0 1007.4 -0.9 85
2017-08-29 03:00:00 24.1 5 Noroeste 10 Noroeste 0 1007.9 -0.6 85
2017-08-29 02:00:00 25 3 Noroeste 7 Noroeste 0 1008.1 -0.3 87
2017-08-29 01:00:00 25.4 3 Norte 5 Norte 0 1008.3 0.2 87
2017-08-29 00:00:00 25.5 0 Calma 7 Este 0 1008.5 1.3 87
2017-08-28 23:00:00 25.7 5 Este 9 Este 0 1008.4 0.9 86
2017-08-28 22:00:00 26.1 5 Sudeste 12 Sudeste 0 1008.1 0.5 83
2017-08-28 21:00:00 26.2 4 Nordeste 13 Sudoeste 0 1007.2 -0.6 82
2017-08-28 20:00:00 26.7 8 Sur 15 Sur 0 1007.5 -0.8 80
2017-08-28 19:00:00 27.3 5 Sur 11 Sur 0 1007.6 -1 76
2017-08-28 18:00:00 28.3 4 Sudeste 21 Sudeste 0 1007.8 -2.1 69
2017-08-28 17:00:00 28.7 12 Sur 21 Sudeste 0 1008.3 -1.5 67
2017-08-28 16:00:00 28.6 5 Sudeste 12 Este 0 1008.6 -0.9 67
2017-08-28 15:00:00 26.4 5 Sur 15 Sudoeste 0 1009.9 0 81
2017-08-28 14:00:00 27.4 8 Sudeste 21 Este 1 1009.8 0.5 81
2017-08-28 13:00:00 29.6 9 Este 21 Este 0 1009.5 0.5 59
2017-08-28 12:00:00 28.9 14 Este 23 Este 0 1009.9 0.6 57
2017-08-28 11:00:00 29.1 8 Este 23 Este 0 1009.3 0.1 55
2017-08-28 10:00:00 27.5 7 Este 14 Este 0 1009 -0.1 69
2017-08-28 09:00:00 23.8 6 Noroeste 17 Noroeste 0 1009.3 0.2 67
2017-08-28 08:00:00 23.4 9 Noroeste 19 Oeste 0 1009.2 -0.3 66
2017-08-28 07:00:00 23 13 Oeste 21 Noroeste 0 1009.1 -0.5 70
2017-08-28 06:00:00 23 15 Noroeste 22 Oeste 0 1009.1 -0.8 72
2017-08-28 05:00:00 23 12 Oeste 18 Oeste 0 1009.5 -0.8 79
2017-08-28 04:00:00 23.4 10 Oeste 17 Oeste 0 1009.6 -0.8 85
2017-08-28 03:00:00 24.1 8 Oeste 12 Oeste 0 1009.9 -0.5 88
2017-08-28 02:00:00 24.7 4 Noroeste 5 Noroeste 0 1010.3 0.4 88
2017-08-28 01:00:00 25.4 0 Calma 6 Noroeste 0 1010.4 0.3 86
2017-08-28 00:00:00 25.9 3 Sudeste 7 Sudeste 0 1010.4 -0.3 86
2017-08-27 23:00:00 26.2 4 Este 14 Este 0 1009.9 -0.3 84
2017-08-27 22:00:00 26.4 4 Nordeste 11 Sudeste 0 1010.1 0.5 83
2017-08-27 21:00:00 26.9 5 Este 12 Sudeste 0 1010.7 1.3 81
2017-08-27 20:00:00 27.6 4 Sudeste 13 Este 0 1010.2 0.9 76
2017-08-27 19:00:00 28.4 9 Este 14 Este 0 1009.6 -0.3 71
2017-08-27 18:00:00 29.4 6 Sudeste 13 Este 0 1009.4 -1.2 68
2017-08-27 17:00:00 29.4 8 Este 15 Este 0 1009.3 -1.3 68
2017-08-27 16:00:00 29.3 4 Este 21 Este 0 1009.9 -0.8 68
2017-08-27 15:00:00 29.4 9 Sudeste 19 Sudeste 0 1010.6 -0.2 68
2017-08-27 14:00:00 29.7 10 Este 22 Este 0 1010.6 0 65
2017-08-27 13:00:00 30 10 Este 18 Este 0 1010.7 0.3 65
2017-08-27 12:00:00 28.6 10 Sudeste 17 Este 0 1010.8 0.8 70
2017-08-27 11:00:00 28.1 7 Norte 15 Sudeste 0 1010.6 1 71
2017-08-27 10:00:00 26.8 3 Sudeste 9 Sudeste 0 1010.4 0.9 76
2017-08-27 09:00:00 24.3 2 Noroeste 14 Oeste 0 1010 0.2 83
2017-08-27 08:00:00 23.8 8 Oeste 13 Noroeste 0 1009.6 0.4 85
2017-08-27 07:00:00 24.2 3 Noroeste 10 Oeste 0 1009.5 0 85
2017-08-27 06:00:00 24.5 7 Oeste 14 Oeste 0 1009.8 -0.9 84
2017-08-27 05:00:00 25 5 Norte 10 Nordeste 0 1009.2 -2 85
2017-08-27 04:00:00 24.5 4 Nordeste 7 Nordeste 0 1009.5 -1.8 86
2017-08-27 03:00:00 25.1 0 Calma 13 Sudoeste 0 1010.7 -0.5 84
2017-08-27 02:00:00 25.5 9 Sudoeste 18 Sudoeste 0 1011.2 0.4 83
2017-08-27 01:00:00 25.9 6 Noroeste 13 Oeste 0 1011.3 0.7 81
2017-08-27 00:00:00 26.1 2 Nordeste 8 Este 0 1011.2 0.4 81
2017-08-26 23:00:00 26.2 3 Este 8 Este 0 1010.8 0.8 79
2017-08-26 22:00:00 26.5 3 Nordeste 11 Sudeste 0 1010.6 1.8 78
2017-08-26 21:00:00 26.9 5 Este 12 Este 0 1010.8 1.2 76
2017-08-26 20:00:00 27.6 4 Este 13 Sudeste 0 1010 0.2 73
2017-08-26 19:00:00 28.9 6 Sudeste 18 Este 0 1008.8 -1.4 68
2017-08-26 18:00:00 28.9 9 Este 24 Este 0 1009.6 -0.8 67
2017-08-26 17:00:00 30 12 Sudeste 26 Sudeste 0 1009.8 -0.9 64
2017-08-26 16:00:00 30.1 13 Sudeste 23 Sudeste 0 1010.2 -0.8 63
2017-08-26 15:00:00 30 13 Sudeste 25 Este 0 1010.4 -0.5 61
2017-08-26 14:00:00 30 9 Este 22 Sudeste 0 1010.7 0.1 65
2017-08-26 13:00:00 29.8 11 Sudeste 21 Este 0 1011 0.8 65
2017-08-26 12:00:00 29.6 12 Este 22 Este 0 1010.9 0.8 67
2017-08-26 11:00:00 29.4 7 Sudeste 13 Este 0 1010.6 0.2 65
2017-08-26 10:00:00 27.5 2 Este 5 Sudeste 0 1010.2 -0.2 72
2017-08-26 09:00:00 24.2 3 Noroeste 13 Noroeste 0 1010.1 -0.1 80
2017-08-26 08:00:00 22.8 8 Oeste 13 Oeste 0 1010.4 0.1 84
2017-08-26 07:00:00 23 11 Oeste 14 Noroeste 0 1010.4 -0.3 83
2017-08-26 06:00:00 23.4 9 Oeste 14 Noroeste 0 1010.2 -0.7 87
2017-08-26 05:00:00 23.8 5 Oeste 8 Oeste 0 1010.3 -0.9 87
2017-08-26 04:00:00 24.8 0 Calma 4 Nordeste 0 1010.7 -0.4 85
2017-08-26 03:00:00 25 0 Calma 6 Norte 0 1010.9 0 83
2017-08-26 02:00:00 25.3 3 Norte 8 Noroeste 0 1011.2 0 82
2017-08-26 01:00:00 25.6 4 Oeste 12 Sur 0 1011.1 -0.6 81
2017-08-26 00:00:00 26 2 Sudoeste 10 Nordeste 0 1010.9 -0.7 79
2017-08-25 23:00:00 26.2 5 Este 12 Nordeste 0 1011.2 1 78
2017-08-25 22:00:00 26.4 7 Sudeste 10 Este 0 1011.7 1.5 77
2017-08-25 21:00:00 26.3 4 Sudoeste 12 Sur 0 1011.6 1.5 78
2017-08-25 20:00:00 27.2 6 Sudeste 17 Sudeste 0 1010.2 -0.3 73
2017-08-25 19:00:00 28.2 8 Este 16 Sudeste 0 1010.2 0.1 67
2017-08-25 18:00:00 29.2 8 Sudeste 18 Sudeste 0 1010.1 -1.4 64
2017-08-25 17:00:00 28.9 10 Este 24 Este 0 1010.5 -1.2 65
2017-08-25 16:00:00 29.1 16 Este 26 Sudeste 0 1010.1 -1.8 62
2017-08-25 15:00:00 30.8 12 Este 23 Sudeste 0 1011.5 -0.6 58
2017-08-25 14:00:00 31.3 8 Sur 19 Este 0 1011.7 -0.1 56
2017-08-25 13:00:00 30.1 10 Sudeste 19 Este 0 1011.9 0.2 60
2017-08-25 12:00:00 29 4 Sur 11 Sur 0 1012.1 0.3 61
2017-08-25 11:00:00 28 3 Sudoeste 10 Sur 0 1011.8 0.4 66
2017-08-25 10:00:00 25.3 4 Oeste 10 Noroeste 0 1011.7 0.6 71
2017-08-25 09:00:00 23 6 Noroeste 11 Oeste 0 1011.8 1 71
2017-08-25 08:00:00 21.2 7 Oeste 12 Oeste 0 1011.4 0.4 77
2017-08-25 07:00:00 21.1 6 Noroeste 9 Noroeste 0 1011.1 0 78
2017-08-25 06:00:00 21.2 7 Oeste 11 Noroeste 0 1010.8 -0.7 77
2017-08-25 05:00:00 21.6 5 Noroeste 11 Oeste 0 1011 -0.6 76
2017-08-25 04:00:00 22 5 Noroeste 10 Noroeste 0 1011.1 -0.6 70
2017-08-25 03:00:00 22.1 4 Noroeste 9 Oeste 0 1011.5 -0.2 69
2017-08-25 02:00:00 22.9 5 Noroeste 10 Noroeste 0 1011.6 0 73
2017-08-25 01:00:00 23.6 5 Oeste 8 Oeste 0 1011.7 0.5 75
2017-08-25 00:00:00 24.4 4 Noroeste 7 Noroeste 0 1011.7 1.1 76
2017-08-24 23:00:00 25.4 3 Noroeste 5 Noroeste 0 1011.6 1.3 75
2017-08-24 22:00:00 25.9 0 Calma 6 Este 0 1011.2 1 72
2017-08-24 21:00:00 26.5 3 Sur 11 Sur 0 1010.6 0.2 72
2017-08-24 20:00:00 27.9 8 Sudeste 15 Este 0 1010.3 -0.5 66
2017-08-24 19:00:00 29 11 Sudeste 23 Este 0 1010.2 -0.9 59
2017-08-24 18:00:00 29.9 10 Sudeste 23 Este 0 1010.4 -1.1 52
2017-08-24 17:00:00 30.5 10 Sudeste 23 Sudeste 0 1010.8 -1 54
2017-08-24 16:00:00 30.9 12 Sudeste 25 Este 0 1011.1 -1.1 54
2017-08-24 15:00:00 31.1 12 Sur 23 Este 0 1011.5 -1.1 53
2017-08-24 14:00:00 30.8 10 Sur 24 Este 0 1011.8 -0.9 55
2017-08-24 13:00:00 30.6 9 Sudeste 19 Sudeste 0 1012.2 -0.2 56
2017-08-24 12:00:00 28.9 10 Sudeste 19 Sur 0 1012.6 0.6 61
2017-08-24 11:00:00 27.8 8 Sur 14 Sur 0 1012.7 1.1 66
2017-08-24 10:00:00 25.8 5 Oeste 11 Oeste 0 1012.4 1 72
2017-08-24 09:00:00 22.8 7 Oeste 14 Oeste 0 1012 0.7 77
2017-08-24 08:00:00 21.8 9 Oeste 14 Noroeste 0 1011.6 0.3 82
2017-08-24 07:00:00 21.9 8 Noroeste 18 Noroeste 0 1011.4 0.4 84
2017-08-24 06:00:00 22.5 6 Oeste 12 Oeste 0 1011.3 0.4 84
2017-08-24 05:00:00 23.1 5 Norte 17 Nordeste 0 1011.3 0.1 83
2017-08-24 04:00:00 22.1 4 Noroeste 9 Noroeste 0 1011 -0.4 84
2017-08-24 03:00:00 22.4 3 Noroeste 7 Noroeste 0 1010.9 -0.6 84
2017-08-24 02:00:00 23.2 2 Noroeste 6 Noroeste 0 1011.2 -0.5 84
2017-08-24 01:00:00 23.6 3 Noroeste 9 Noroeste 0 1011.4 0 84
2017-08-24 00:00:00 24.3 6 Oeste 8 Oeste 0 1011.5 0.5 83
2017-08-23 23:00:00 24.6 3 Sudoeste 5 Sur 0 1011.7 0.8 82
2017-08-23 22:00:00 25.2 0 Calma 6 Este 0 1011.4 0.7 79
2017-08-23 21:00:00 26 4 Sudeste 14 Este 0 1011 -0.1 76
2017-08-23 20:00:00 27.2 7 Este 17 Sudeste 0 1010.9 -0.2 71
2017-08-23 19:00:00 28 9 Sudeste 17 Sudeste 0 1010.7 -0.8 64
2017-08-23 18:00:00 28.6 11 Este 23 Este 0 1011.1 -0.6 62
2017-08-23 17:00:00 28.9 12 Este 24 Sudeste 0 1011.1 -1 62
2017-08-23 16:00:00 29.5 11 Sudeste 23 Este 0 1011.5 -0.8 62
2017-08-23 15:00:00 29.1 11 Sudeste 26 Este 0 1011.7 -0.7 63
2017-08-23 14:00:00 29.6 10 Sudeste 22 Sudeste 0 1012.1 0 63
2017-08-23 13:00:00 28.2 10 Este 20 Este 0 1012.3 0.6 69
2017-08-23 12:00:00 28.6 9 Este 18 Este 0 1012.4 1 66
2017-08-23 11:00:00 26.8 6 Este 12 Sudeste 0 1012.1 1 73
2017-08-23 10:00:00 25.8 4 Este 13 Este 0 1011.7 1.1 77
2017-08-23 09:00:00 23.2 5 Noroeste 10 Oeste 0 1011.4 1.5 78
2017-08-23 08:00:00 21.5 5 Noroeste 9 Noroeste 0 1011.1 1 79
2017-08-23 07:00:00 21.3 5 Noroeste 9 Oeste 0 1010.6 0 75
2017-08-23 06:00:00 21.4 7 Oeste 9 Oeste 0 1009.9 -1 72
2017-08-23 05:00:00 21.9 5 Noroeste 11 Oeste 0 1010.1 -0.7 71
2017-08-23 04:00:00 22.2 7 Oeste 10 Oeste 0 1010.6 -0.3 68
2017-08-23 03:00:00 22.2 4 Norte 7 Noroeste 0 1010.9 0 66
2017-08-23 02:00:00 22.7 3 Noroeste 9 Oeste 0 1010.8 0 71
2017-08-23 01:00:00 23.2 4 Noroeste 8 Oeste 0 1010.9 0.3 69
2017-08-23 00:00:00 23.9 4 Noroeste 9 Oeste 0 1010.9 0.9 70
2017-08-22 23:00:00 25 0 Calma 4 Oeste 0 1010.8 0.8 69
2017-08-22 22:00:00 25.4 2 Sur 8 Sur 0 1010.6 0.6 68
2017-08-22 21:00:00 26.3 5 Sur 12 Sur 0 1010 -0.4 63
2017-08-22 20:00:00 27.7 8 Sur 15 Sur 0 1010 -0.5 56
2017-08-22 19:00:00 29 9 Sur 18 Sudeste 0 1010 -0.9 53
2017-08-22 18:00:00 30.1 8 Sur 23 Sudeste 0 1010.4 -1 52
2017-08-22 17:00:00 30.9 12 Sudeste 23 Este 0 1010.5 -1.2 52
2017-08-22 16:00:00 31.7 10 Sur 21 Este 0 1010.9 -1.3 48
2017-08-22 15:00:00 31 12 Sudeste 25 Este 0 1011.4 -1.3 49
2017-08-22 14:00:00 30.1 14 Este 24 Sudeste 0 1011.7 -1 55
2017-08-22 13:00:00 30.3 10 Sudeste 20 Este 0 1012.2 -0.4 54
2017-08-22 12:00:00 29.6 -- -- -- -- 0 1012.7 0.2 58
2017-08-22 11:00:00 28.3 7 Sudeste 14 Sudeste 0 1012.7 0.3 61
2017-08-22 10:00:00 26.5 5 Sur 9 Sudeste 0 1012.6 0.3 69
2017-08-22 09:00:00 23.7 4 Noroeste 11 Noroeste 0 1012.5 0.4 73
2017-08-22 08:00:00 21.4 5 Noroeste 10 Noroeste 0 1012.4 0.1 83
2017-08-22 07:00:00 21.2 5 Oeste 13 Oeste 0 1012.3 -0.1 84
2017-08-22 06:00:00 21.4 9 Oeste 15 Oeste 0 1012.1 -0.4 86
2017-08-22 05:00:00 21.6 4 Noroeste 13 Oeste 0 1012.3 -0.6 85
2017-08-22 04:00:00 22.2 4 Noroeste 7 Noroeste 0 1012.4 -0.6 82
2017-08-22 03:00:00 22.6 3 Noroeste 7 Noroeste 0 1012.5 -0.5 83
2017-08-22 02:00:00 23.2 4 Noroeste 11 Oeste 0 1012.9 -0.1 81
2017-08-22 01:00:00 23.8 7 Oeste 12 Sudoeste 0 1013 0.1 81
2017-08-22 00:00:00 24.3 3 Sur 9 Sudoeste 0 1013 0.4 79